createdAt,value
2023-09-16T00:00:34.723Z,22.79
2023-09-16T00:03:02.670Z,22.74
2023-09-16T00:05:30.218Z,22.75
2023-09-16T00:07:57.643Z,22.65
2023-09-16T00:10:25.368Z,22.52
2023-09-16T00:12:52.854Z,22.45
2023-09-16T00:15:23.122Z,22.57
2023-09-16T00:17:50.924Z,22.46
2023-09-16T00:20:18.534Z,22.22
2023-09-16T00:22:47.034Z,22.32
2023-09-16T00:25:15.400Z,22.26
2023-09-16T00:27:42.838Z,22.17
2023-09-16T00:30:10.742Z,22.00
2023-09-16T00:32:38.555Z,22.21
2023-09-16T00:35:06.318Z,22.12
2023-09-16T00:37:33.701Z,22.05
2023-09-16T00:40:01.402Z,22.40
2023-09-16T00:42:29.012Z,22.13
2023-09-16T00:44:56.462Z,22.16
2023-09-16T00:47:24.233Z,22.12
2023-09-16T00:49:51.699Z,21.97
2023-09-16T00:52:19.097Z,22.18
2023-09-16T00:54:48.994Z,22.16
2023-09-16T00:57:16.452Z,22.04
2023-09-16T00:59:43.880Z,22.16
2023-09-16T01:02:11.647Z,22.28
2023-09-16T01:04:40.346Z,21.89
2023-09-16T01:07:08.623Z,21.99
2023-09-16T01:09:37.294Z,22.26
2023-09-16T01:12:06.139Z,22.38
2023-09-16T01:14:34.727Z,22.37
2023-09-16T01:17:16.123Z,22.41
2023-09-16T01:19:54.125Z,22.39
2023-09-16T01:22:21.870Z,22.09
2023-09-16T01:24:53.731Z,21.89
2023-09-16T01:27:22.391Z,22.18
2023-09-16T01:29:50.124Z,22.15
2023-09-16T01:32:17.833Z,21.87
2023-09-16T01:34:46.724Z,21.84
2023-09-16T01:37:17.655Z,21.99
2023-09-16T01:39:50.818Z,21.89
2023-09-16T01:42:21.026Z,22.05
2023-09-16T01:44:49.561Z,21.73
2023-09-16T01:47:16.980Z,22.09
2023-09-16T01:49:44.647Z,21.95
2023-09-16T01:52:12.275Z,21.79
2023-09-16T01:54:40.230Z,22.14
2023-09-16T01:57:07.923Z,22.06
2023-09-16T01:59:35.656Z,22.29
2023-09-16T02:02:03.253Z,21.95
2023-09-16T02:04:31.002Z,21.86
2023-09-16T02:06:58.875Z,22.14
2023-09-16T02:09:28.018Z,22.36
2023-09-16T02:11:55.774Z,22.60
2023-09-16T02:14:23.696Z,22.21
2023-09-16T02:16:51.185Z,22.36
2023-09-16T02:19:18.990Z,22.14
2023-09-16T02:21:46.432Z,21.71
2023-09-16T02:24:14.142Z,21.61
2023-09-16T02:26:41.596Z,21.60
2023-09-16T02:29:10.812Z,22.01
2023-09-16T02:31:39.204Z,22.50
2023-09-16T02:34:06.723Z,22.34
2023-09-16T02:36:35.087Z,22.66
2023-09-16T02:39:02.942Z,22.05
2023-09-16T02:41:31.279Z,22.05
2023-09-16T02:43:59.033Z,21.97
2023-09-16T02:46:26.789Z,22.45
2023-09-16T02:48:54.296Z,22.03
2023-09-16T02:51:21.732Z,21.84
2023-09-16T02:53:49.428Z,21.91
2023-09-16T02:56:16.853Z,21.80
2023-09-16T02:58:44.291Z,21.92
2023-09-16T03:01:12.172Z,21.68
2023-09-16T03:03:41.233Z,21.82
2023-09-16T03:06:08.852Z,21.97
2023-09-16T03:08:36.615Z,21.81
2023-09-16T03:11:04.724Z,22.05
2023-09-16T03:13:32.602Z,21.84
2023-09-16T03:16:27.018Z,21.89
2023-09-16T03:18:54.782Z,22.18
2023-09-16T03:21:24.662Z,22.05
2023-09-16T03:23:53.097Z,22.30
2023-09-16T03:26:20.544Z,21.90
2023-09-16T03:28:49.402Z,21.51
2023-09-16T03:31:17.595Z,21.57
2023-09-16T03:33:45.383Z,22.18
2023-09-16T03:36:13.674Z,22.09
2023-09-16T03:38:48.962Z,22.21
2023-09-16T03:41:17.799Z,21.94
2023-09-16T03:43:47.789Z,21.96
2023-09-16T03:46:18.198Z,21.64
2023-09-16T03:48:45.954Z,22.25
2023-09-16T03:51:13.547Z,21.83
2023-09-16T03:53:41.595Z,22.15
2023-09-16T03:56:13.244Z,22.20
2023-09-16T03:58:41.058Z,21.48
2023-09-16T04:01:08.544Z,21.80
2023-09-16T04:03:36.375Z,21.55
2023-09-16T04:06:06.041Z,21.58
2023-09-16T04:08:41.864Z,21.69
2023-09-16T04:11:10.291Z,21.23
2023-09-16T04:13:38.280Z,21.17
2023-09-16T04:16:05.820Z,21.42
2023-09-16T04:18:35.269Z,21.62
2023-09-16T04:21:04.160Z,21.60
2023-09-16T04:23:32.257Z,21.89
2023-09-16T04:26:04.828Z,21.44
2023-09-16T04:28:32.306Z,21.48
2023-09-16T04:31:00.704Z,21.69
2023-09-16T04:33:29.428Z,21.87
2023-09-16T04:35:57.580Z,21.12
2023-09-16T04:38:25.657Z,21.31
2023-09-16T04:40:54.324Z,21.28
2023-09-16T04:43:22.684Z,21.02
2023-09-16T04:45:50.864Z,21.09
2023-09-16T04:48:23.877Z,21.36
2023-09-16T04:50:52.017Z,21.47
2023-09-16T04:53:19.749Z,21.28
2023-09-16T04:55:47.252Z,21.52
2023-09-16T04:58:15.152Z,21.51
2023-09-16T05:00:43.314Z,21.71
2023-09-16T05:03:11.033Z,21.62
2023-09-16T05:05:38.915Z,21.88
2023-09-16T05:08:06.725Z,21.71
2023-09-16T05:10:34.118Z,21.97
2023-09-16T05:13:01.923Z,21.81
2023-09-16T05:15:29.525Z,22.20
2023-09-16T05:17:57.007Z,21.97
2023-09-16T05:20:24.848Z,22.19
2023-09-16T05:22:52.674Z,22.19
2023-09-16T05:25:21.208Z,21.91
2023-09-16T05:27:49.013Z,22.35
2023-09-16T05:30:17.108Z,22.41
2023-09-16T05:32:45.237Z,22.35
2023-09-16T05:35:13.086Z,22.57
2023-09-16T05:37:40.848Z,22.80
2023-09-16T05:40:09.029Z,22.72
2023-09-16T05:42:37.074Z,22.71
2023-09-16T05:45:05.054Z,22.77
2023-09-16T05:47:33.509Z,22.86
2023-09-16T05:50:01.881Z,22.91
2023-09-16T05:52:29.940Z,22.66
2023-09-16T05:54:58.754Z,23.01
2023-09-16T05:57:26.779Z,23.14
2023-09-16T05:59:54.250Z,22.81
2023-09-16T06:02:21.912Z,23.07
2023-09-16T06:04:51.065Z,22.73
2023-09-16T06:07:18.633Z,22.81
2023-09-16T06:09:46.180Z,23.05
2023-09-16T06:12:14.063Z,23.20
2023-09-16T06:14:41.709Z,23.70
2023-09-16T06:17:09.352Z,23.44
2023-09-16T06:19:39.052Z,23.28
2023-09-16T06:22:08.458Z,23.45
2023-09-16T06:24:36.016Z,23.49
2023-09-16T06:27:03.982Z,23.31
2023-09-16T06:29:31.586Z,23.53
2023-09-16T06:31:59.069Z,23.39
2023-09-16T06:34:26.883Z,23.96
2023-09-16T06:36:54.366Z,23.71
2023-09-16T06:39:22.814Z,23.55
2023-09-16T06:41:50.560Z,22.98
2023-09-16T06:44:17.969Z,23.31
2023-09-16T06:46:45.897Z,23.26
2023-09-16T06:49:13.763Z,23.60
2023-09-16T06:51:41.183Z,24.00
2023-09-16T06:54:08.679Z,24.13
2023-09-16T06:56:36.374Z,23.81
2023-09-16T06:59:03.897Z,24.33
2023-09-16T07:01:31.344Z,24.48
2023-09-16T07:03:59.435Z,24.77
2023-09-16T07:06:26.898Z,25.09
2023-09-16T07:08:54.286Z,23.94
2023-09-16T07:11:22.014Z,23.50
2023-09-16T07:13:49.467Z,24.37
2023-09-16T07:16:18.919Z,23.71
2023-09-16T07:18:46.649Z,23.95
2023-09-16T07:21:14.046Z,24.46
2023-09-16T07:23:41.526Z,24.62
2023-09-16T07:26:09.239Z,24.92
2023-09-16T07:28:36.680Z,24.07
2023-09-16T07:31:04.128Z,24.86
2023-09-16T07:33:31.887Z,24.46
2023-09-16T07:35:59.259Z,24.63
2023-09-16T07:38:26.770Z,24.88
2023-09-16T07:40:54.497Z,24.41
2023-09-16T07:43:22.313Z,24.49
2023-09-16T07:45:49.913Z,24.79
2023-09-16T07:48:18.596Z,25.19
2023-09-16T07:50:46.410Z,24.43
2023-09-16T07:53:13.867Z,24.09
2023-09-16T07:55:41.535Z,24.02
2023-09-16T07:58:09.055Z,25.10
2023-09-16T08:00:36.541Z,25.04
2023-09-16T08:03:04.560Z,25.15
2023-09-16T08:05:32.117Z,25.07
2023-09-16T08:07:59.653Z,25.40
2023-09-16T08:10:27.435Z,24.97
2023-09-16T08:12:54.922Z,24.25
2023-09-16T08:15:22.487Z,24.40
2023-09-16T08:17:50.151Z,24.29
2023-09-16T08:20:20.030Z,25.25
2023-09-16T08:22:47.790Z,25.77
2023-09-16T08:25:15.463Z,25.71
2023-09-16T08:27:42.894Z,24.82
2023-09-16T08:30:10.716Z,25.64
2023-09-16T08:32:40.229Z,26.10
2023-09-16T08:35:08.504Z,25.18
2023-09-16T08:37:36.280Z,25.07
2023-09-16T08:40:04.551Z,24.80
2023-09-16T08:42:36.929Z,25.62
2023-09-16T08:45:06.212Z,24.33
2023-09-16T08:47:46.295Z,25.28
2023-09-16T08:50:13.957Z,26.00
2023-09-16T08:52:46.680Z,26.25
2023-09-16T08:55:14.560Z,26.24
2023-09-16T08:57:45.091Z,26.40
2023-09-16T09:00:13.308Z,26.96
2023-09-16T09:02:41.167Z,26.12
2023-09-16T09:05:08.929Z,25.44
2023-09-16T09:07:45.206Z,26.10
2023-09-16T09:10:13.640Z,26.16
2023-09-16T09:12:42.762Z,25.58
2023-09-16T09:15:11.937Z,26.14
2023-09-16T09:17:42.949Z,26.35
2023-09-16T09:20:12.780Z,26.59
2023-09-16T09:22:43.265Z,26.69
2023-09-16T09:25:10.797Z,26.53
2023-09-16T09:27:38.258Z,26.84
2023-09-16T09:30:06.475Z,27.49
2023-09-16T09:32:34.218Z,27.40
2023-09-16T09:35:07.937Z,26.93
2023-09-16T09:37:35.653Z,27.20
2023-09-16T09:40:10.285Z,26.73
2023-09-16T09:42:47.887Z,26.31
2023-09-16T09:45:16.282Z,26.60
2023-09-16T09:47:44.176Z,26.90
2023-09-16T09:50:16.330Z,27.04
2023-09-16T09:52:51.606Z,26.79
2023-09-16T09:55:19.950Z,26.95
2023-09-16T09:57:48.087Z,27.06
2023-09-16T10:00:17.454Z,26.44
2023-09-16T10:02:45.701Z,27.25
2023-09-16T10:05:22.731Z,28.15
2023-09-16T10:07:51.852Z,28.55
2023-09-16T10:10:26.088Z,28.57
2023-09-16T10:12:54.928Z,28.85
2023-09-16T10:15:25.836Z,27.82
2023-09-16T10:17:53.808Z,27.50
2023-09-16T10:20:21.548Z,27.93
2023-09-16T10:22:48.948Z,28.03
2023-09-16T10:25:18.016Z,27.83
2023-09-16T10:27:52.359Z,26.55
2023-09-16T10:30:20.206Z,26.65
2023-09-16T10:32:47.757Z,26.99
2023-09-16T10:35:15.319Z,26.55
2023-09-16T10:37:43.097Z,28.05
2023-09-16T10:40:11.294Z,28.52
2023-09-16T10:42:38.762Z,28.10
2023-09-16T10:45:07.496Z,28.04
2023-09-16T10:47:34.928Z,27.95
2023-09-16T10:50:02.520Z,27.74
2023-09-16T10:52:52.157Z,28.42
2023-09-16T10:55:36.032Z,28.09
2023-09-16T10:58:05.249Z,28.34
2023-09-16T11:00:38.728Z,27.73
2023-09-16T11:03:06.709Z,28.54
2023-09-16T11:05:34.911Z,27.89
2023-09-16T11:08:02.408Z,27.24
2023-09-16T11:10:30.049Z,27.58
2023-09-16T11:12:57.536Z,27.44
2023-09-16T11:15:31.893Z,27.15
2023-09-16T11:18:06.605Z,27.20
2023-09-16T11:20:34.837Z,27.06
2023-09-16T11:23:05.976Z,27.68
2023-09-16T11:25:37.401Z,27.15
2023-09-16T11:28:08.531Z,27.94
2023-09-16T11:30:36.846Z,28.13
2023-09-16T11:33:09.656Z,28.32
2023-09-16T11:35:38.801Z,26.78
2023-09-16T11:38:06.537Z,27.29
2023-09-16T11:40:34.117Z,27.36
2023-09-16T11:43:02.030Z,27.89
2023-09-16T11:45:29.796Z,27.98
2023-09-16T11:47:57.250Z,28.49
2023-09-16T11:50:26.029Z,27.02
2023-09-16T11:52:54.122Z,28.48
2023-09-16T11:55:21.551Z,27.65
2023-09-16T11:57:49.193Z,28.21
2023-09-16T12:00:17.265Z,27.15
2023-09-16T12:02:45.109Z,27.89
2023-09-16T12:05:12.743Z,27.82
2023-09-16T12:07:40.226Z,27.79
2023-09-16T12:10:08.319Z,27.50
2023-09-16T12:12:35.864Z,28.06
2023-09-16T12:15:03.644Z,28.54
2023-09-16T12:17:33.686Z,28.94
2023-09-16T12:20:01.189Z,29.25
2023-09-16T12:22:28.634Z,28.63
2023-09-16T12:24:56.618Z,29.13
2023-09-16T12:27:25.249Z,28.53
2023-09-16T12:29:52.690Z,29.02
2023-09-16T12:32:22.767Z,29.28
2023-09-16T12:35:07.160Z,29.57
2023-09-16T12:37:34.928Z,29.71
2023-09-16T12:40:02.914Z,29.83
2023-09-16T12:42:30.997Z,29.96
2023-09-16T12:44:59.437Z,30.03
2023-09-16T12:47:27.569Z,29.93
2023-09-16T12:49:55.054Z,29.87
2023-09-16T12:52:22.784Z,30.16
2023-09-16T12:54:50.286Z,29.51
2023-09-16T12:57:17.784Z,29.84
2023-09-16T12:59:46.630Z,28.87
2023-09-16T13:02:14.130Z,29.12
2023-09-16T13:04:41.606Z,29.34
2023-09-16T13:07:09.324Z,29.42
2023-09-16T13:09:36.781Z,29.34
2023-09-16T13:12:04.218Z,29.67
2023-09-16T13:14:31.885Z,29.58
2023-09-16T13:16:59.413Z,29.65
2023-09-16T13:19:27.546Z,29.80
2023-09-16T13:21:55.628Z,28.72
2023-09-16T13:24:23.088Z,29.19
2023-09-16T13:26:54.303Z,28.41
2023-09-16T13:29:22.047Z,28.92
2023-09-16T13:32:02.485Z,29.12
2023-09-16T13:34:45.663Z,29.12
2023-09-16T13:37:13.496Z,29.11
2023-09-16T13:39:45.225Z,29.07
2023-09-16T13:42:13.149Z,29.01
2023-09-16T13:44:45.183Z,28.96
2023-09-16T13:47:14.836Z,28.95
2023-09-16T13:49:42.919Z,28.98
2023-09-16T13:52:10.376Z,28.71
2023-09-16T13:54:37.961Z,28.84
2023-09-16T13:57:05.979Z,28.64
2023-09-16T13:59:33.430Z,28.85
2023-09-16T14:02:00.939Z,27.82
2023-09-16T14:04:28.686Z,28.23
2023-09-16T14:06:56.190Z,28.32
2023-09-16T14:09:23.609Z,28.40
2023-09-16T14:11:51.308Z,28.36
2023-09-16T14:14:19.192Z,28.25
2023-09-16T14:16:46.786Z,28.27
2023-09-16T14:19:16.693Z,28.34
2023-09-16T14:21:44.267Z,28.20
2023-09-16T14:24:11.692Z,28.19
2023-09-16T14:26:39.566Z,28.51
2023-09-16T14:29:07.023Z,28.16
2023-09-16T14:31:34.510Z,28.22
2023-09-16T14:34:02.297Z,28.34
2023-09-16T14:36:30.592Z,27.99
2023-09-16T14:38:58.001Z,28.04
2023-09-16T14:41:25.665Z,27.96
2023-09-16T14:43:53.053Z,28.19
2023-09-16T14:46:20.574Z,28.22
2023-09-16T14:48:48.710Z,28.25
2023-09-16T14:51:16.428Z,28.18
2023-09-16T14:53:43.878Z,27.98
2023-09-16T14:56:11.826Z,27.32
2023-09-16T14:58:39.521Z,27.63
2023-09-16T15:01:07.056Z,27.94
2023-09-16T15:03:34.919Z,27.76
2023-09-16T15:06:02.525Z,27.94
2023-09-16T15:08:30.016Z,27.70
2023-09-16T15:10:57.750Z,27.54
2023-09-16T15:13:25.200Z,27.55
2023-09-16T15:15:52.723Z,27.41
2023-09-16T15:18:20.390Z,27.08
2023-09-16T15:20:47.802Z,27.13
2023-09-16T15:23:15.233Z,27.24
2023-09-16T15:25:42.954Z,27.46
2023-09-16T15:28:10.327Z,27.33
2023-09-16T15:30:37.694Z,27.19
2023-09-16T15:33:05.622Z,27.26
2023-09-16T15:35:33.408Z,27.27
2023-09-16T15:38:01.337Z,27.17
2023-09-16T15:40:29.079Z,27.28
2023-09-16T15:42:56.553Z,27.15
2023-09-16T15:45:24.038Z,27.10
2023-09-16T15:47:51.798Z,27.46
2023-09-16T15:50:19.331Z,27.12
2023-09-16T15:52:47.202Z,27.19
2023-09-16T15:55:18.241Z,27.18
2023-09-16T15:57:45.777Z,27.04
2023-09-16T16:00:13.783Z,27.16
2023-09-16T16:02:42.572Z,27.08
2023-09-16T16:05:10.132Z,27.11
2023-09-16T16:07:37.539Z,27.22
2023-09-16T16:10:07.521Z,26.86
2023-09-16T16:12:34.980Z,26.83
2023-09-16T16:15:02.853Z,26.47
2023-09-16T16:17:31.693Z,26.45
2023-09-16T16:19:59.225Z,26.78
2023-09-16T16:22:26.853Z,26.59
2023-09-16T16:24:55.163Z,26.50
2023-09-16T16:27:22.714Z,26.34
2023-09-16T16:29:50.444Z,26.39
2023-09-16T16:32:24.434Z,26.13
2023-09-16T16:34:52.359Z,26.02
2023-09-16T16:37:20.063Z,25.88
2023-09-16T16:39:47.533Z,26.06
2023-09-16T16:42:15.982Z,25.70
2023-09-16T16:44:43.890Z,25.65
2023-09-16T16:47:11.431Z,25.78
2023-09-16T16:49:39.604Z,25.37
2023-09-16T16:52:07.306Z,25.55
2023-09-16T16:54:34.745Z,25.53
2023-09-16T16:57:03.282Z,25.26
2023-09-16T16:59:30.951Z,25.14
2023-09-16T17:01:59.261Z,25.12
2023-09-16T17:04:26.752Z,25.06
2023-09-16T17:06:54.497Z,24.43
2023-09-16T17:09:21.898Z,24.58
2023-09-16T17:11:49.294Z,24.57
2023-09-16T17:14:17.104Z,24.69
2023-09-16T17:16:44.754Z,24.54
2023-09-16T17:19:12.326Z,24.14
2023-09-16T17:21:40.858Z,24.08
2023-09-16T17:24:08.824Z,24.09
2023-09-16T17:26:36.976Z,24.06
2023-09-16T17:29:04.782Z,23.88
2023-09-16T17:31:32.275Z,23.46
2023-09-16T17:33:59.862Z,23.57
2023-09-16T17:36:27.609Z,23.25
2023-09-16T17:38:54.992Z,23.60
2023-09-16T17:41:22.353Z,23.69
2023-09-16T17:43:50.780Z,23.82
2023-09-16T17:46:18.433Z,23.74
2023-09-16T17:48:45.941Z,23.91
2023-09-16T17:51:13.658Z,23.57
2023-09-16T17:53:41.044Z,23.63
2023-09-16T17:56:08.497Z,23.45
2023-09-16T17:58:37.361Z,23.44
2023-09-16T18:01:07.735Z,23.57
2023-09-16T18:03:35.455Z,23.45
2023-09-16T18:06:03.964Z,23.47
2023-09-16T18:08:34.584Z,23.41
2023-09-16T18:11:02.398Z,23.26
2023-09-16T18:13:30.488Z,23.39
2023-09-16T18:15:58.302Z,23.31
2023-09-16T18:18:27.894Z,23.40
2023-09-16T18:20:55.403Z,23.21
2023-09-16T18:23:22.816Z,23.24
2023-09-16T18:25:50.586Z,23.21
2023-09-16T18:28:18.701Z,23.27
2023-09-16T18:30:51.215Z,23.21
2023-09-16T18:33:22.016Z,23.32
2023-09-16T18:35:49.872Z,23.53
2023-09-16T18:38:21.243Z,23.28
2023-09-16T18:40:49.941Z,23.03
2023-09-16T18:43:18.176Z,23.02
2023-09-16T18:45:45.880Z,22.91
2023-09-16T18:48:14.656Z,22.92
2023-09-16T18:50:43.322Z,22.97
2023-09-16T18:53:11.278Z,23.17
2023-09-16T18:55:44.919Z,23.27
2023-09-16T18:58:15.421Z,22.98
2023-09-16T19:00:43.924Z,23.22
2023-09-16T19:03:11.730Z,23.15
2023-09-16T19:05:42.133Z,23.05
2023-09-16T19:08:13.026Z,22.69
2023-09-16T19:10:43.763Z,23.07
2023-09-16T19:13:12.334Z,23.04
2023-09-16T19:15:39.842Z,23.03
2023-09-16T19:18:07.352Z,22.60
2023-09-16T19:20:35.051Z,22.66
2023-09-16T19:23:02.646Z,22.88
2023-09-16T19:25:30.271Z,22.82
2023-09-16T19:27:57.973Z,22.74
2023-09-16T19:30:25.422Z,22.62
2023-09-16T19:32:55.233Z,22.63
2023-09-16T19:35:24.669Z,22.87
2023-09-16T19:37:52.202Z,22.33
2023-09-16T19:40:19.690Z,22.58
2023-09-16T19:42:47.357Z,22.48
2023-09-16T19:45:14.864Z,21.87
2023-09-16T19:47:42.501Z,21.95
2023-09-16T19:50:10.307Z,21.83
2023-09-16T19:52:37.776Z,21.97
2023-09-16T19:55:05.466Z,22.21
2023-09-16T19:57:33.504Z,22.37
2023-09-16T20:00:00.946Z,21.71
2023-09-16T20:02:29.765Z,21.87
2023-09-16T20:04:57.549Z,21.84
2023-09-16T20:07:25.007Z,21.97
2023-09-16T20:09:52.861Z,21.95
2023-09-16T20:12:20.654Z,21.94
2023-09-16T20:14:48.112Z,22.22
2023-09-16T20:17:15.682Z,21.76
2023-09-16T20:19:43.802Z,21.90
2023-09-16T20:22:11.308Z,21.71
2023-09-16T20:24:38.832Z,22.03
2023-09-16T20:27:06.589Z,22.13
2023-09-16T20:29:34.867Z,21.59
2023-09-16T20:32:02.373Z,21.76
2023-09-16T20:34:30.200Z,21.87
2023-09-16T20:36:58.642Z,21.50
2023-09-16T20:39:26.014Z,21.38
2023-09-16T20:41:53.717Z,21.83
2023-09-16T20:44:21.147Z,21.63
2023-09-16T20:46:48.599Z,21.62
2023-09-16T20:49:16.375Z,21.04
2023-09-16T20:51:43.811Z,21.55
2023-09-16T20:54:11.266Z,21.68
2023-09-16T20:56:38.956Z,21.35
2023-09-16T20:59:06.908Z,21.51
2023-09-16T21:01:34.536Z,21.56
2023-09-16T21:04:02.422Z,21.77
2023-09-16T21:06:30.201Z,21.74
2023-09-16T21:08:57.696Z,21.66
2023-09-16T21:11:26.299Z,21.89
2023-09-16T21:13:54.122Z,21.58
2023-09-16T21:16:22.023Z,21.25
2023-09-16T21:18:49.850Z,21.61
2023-09-16T21:21:17.291Z,22.00
2023-09-16T21:23:44.681Z,22.17
2023-09-16T21:26:13.507Z,21.75
2023-09-16T21:28:41.336Z,21.80
2023-09-16T21:31:08.935Z,21.68
2023-09-16T21:33:36.657Z,21.78
2023-09-16T21:36:04.113Z,21.94
2023-09-16T21:38:31.567Z,22.03
2023-09-16T21:40:59.531Z,22.12
2023-09-16T21:43:27.052Z,21.92
2023-09-16T21:45:56.432Z,21.41
2023-09-16T21:48:24.224Z,21.43
2023-09-16T21:50:54.880Z,21.16
2023-09-16T21:53:22.325Z,21.47
2023-09-16T21:55:49.986Z,21.59
2023-09-16T21:58:17.450Z,21.91
2023-09-16T22:00:45.060Z,21.55
2023-09-16T22:03:12.919Z,20.98
2023-09-16T22:05:40.638Z,21.25
2023-09-16T22:08:08.056Z,21.66
2023-09-16T22:10:38.922Z,21.57
2023-09-16T22:13:06.715Z,21.30
2023-09-16T22:15:35.230Z,21.59
2023-09-16T22:18:04.353Z,21.37
2023-09-16T22:20:32.161Z,21.34
2023-09-16T22:22:59.707Z,21.27
2023-09-16T22:25:27.472Z,21.28
2023-09-16T22:27:54.939Z,20.69
2023-09-16T22:30:22.478Z,21.03
2023-09-16T22:32:50.916Z,21.18
2023-09-16T22:35:18.419Z,21.46
2023-09-16T22:37:45.992Z,21.03
2023-09-16T22:40:13.774Z,20.98
2023-09-16T22:42:41.358Z,20.89
2023-09-16T22:45:08.839Z,20.91
2023-09-16T22:47:36.645Z,20.82
2023-09-16T22:50:05.085Z,20.74
2023-09-16T22:52:32.904Z,20.62
2023-09-16T22:55:00.788Z,20.62
2023-09-16T22:57:28.378Z,20.82
2023-09-16T22:59:56.431Z,20.87
2023-09-16T23:02:24.436Z,20.74
2023-09-16T23:04:52.327Z,20.41
2023-09-16T23:07:20.003Z,20.17
2023-09-16T23:09:47.855Z,20.63
2023-09-16T23:12:15.379Z,20.71
2023-09-16T23:14:42.800Z,20.82
2023-09-16T23:17:10.774Z,20.65
2023-09-16T23:19:39.804Z,20.82
2023-09-16T23:22:07.453Z,20.77
2023-09-16T23:24:35.231Z,20.75
2023-09-16T23:27:02.710Z,20.75
2023-09-16T23:29:30.420Z,20.71
2023-09-16T23:31:58.164Z,20.53
2023-09-16T23:34:25.648Z,20.51
2023-09-16T23:36:53.064Z,20.59
2023-09-16T23:39:20.752Z,20.44
2023-09-16T23:41:48.154Z,20.77
2023-09-16T23:44:15.712Z,20.70
2023-09-16T23:46:43.439Z,20.81
2023-09-16T23:49:11.072Z,20.94
2023-09-16T23:51:38.485Z,20.76
2023-09-16T23:54:06.230Z,20.62
2023-09-16T23:56:33.676Z,20.68
2023-09-16T23:59:01.032Z,20.67
